Taiyoung Star — DSON6 — position and weather

sailwx.info

Track history (hours):
 
Tides and Currents Weather Stations Pressure Air Temp Water Temp Dewpoint Dewpoint Depression Visibility Wind Speed Wind Dir Waves Ship Positions

Taiyoung Star

Last reported at 2017-Nov-17 07:46 UTC. Time now 2017-Nov-22 14:47 UTC.
Position N 34°37' E 135°01'.

Length 79 m; draft 4 m.

Type: Cargo ship. MMSI: 440970000.

Date/timePositionNaut miles runAvg speedWind from/ knotsBaromVisibWave heightAir tempDewpointWater temp
2017-Nov-17 07:46N 34°37' E 135°01'3 9.0
2017-Nov-17 07:29N 34°36' E 135°04'4 7.2
2017-Nov-17 07:00N 34°32' E 135°05'510.0
2017-Nov-17 06:30N 34°28' E 135°03'12 8.8
2017-Nov-17 05:05N 34°16' E 134°59'1 8.1
2017-Nov-17 04:59N 34°15' E 134°59'4 8.9
2017-Nov-17 04:30N 34°11' E 134°60'5 9.7
2017-Nov-17 03:59N 34°06' E 135°01'  
2017-Nov-08 08:56N 34°37' E 135°01'3 6.4
2017-Nov-08 08:29N 34°36' E 135°04'4 7.6
2017-Nov-08 07:59N 34°32' E 135°04'5 9.7
2017-Nov-08 07:30N 34°28' E 135°03'12 9.5
2017-Nov-08 06:12N 34°16' E 134°60'2 9.3
2017-Nov-08 06:01N 34°14' E 134°60'5 9.8
2017-Nov-08 05:29N 34°09' E 134°60'5 9.5
2017-Nov-08 04:58N 34°04' E 135°00'  
Track history (hours):
 
Tides and Currents Weather Stations Pressure Air Temp Water Temp Dewpoint Dewpoint Depression Visibility Wind Speed Wind Dir Waves Ship Positions

Taiyoung Star

Last reported at 2017-Nov-17 07:46 UTC. Time now 2017-Nov-22 14:47 UTC.
Position N 34°37' E 135°01'.

Length 79 m; draft 4 m.

Type: Cargo ship. MMSI: 440970000.

Date/timePositionNaut miles runAvg speedWind from/ knotsBaromVisibWave heightAir tempDewpointWater temp
2017-Nov-17 07:46N 34°37' E 135°01'3 9.0
2017-Nov-17 07:29N 34°36' E 135°04'4 7.2
2017-Nov-17 07:00N 34°32' E 135°05'510.0
2017-Nov-17 06:30N 34°28' E 135°03'12 8.8
2017-Nov-17 05:05N 34°16' E 134°59'1 8.1
2017-Nov-17 04:59N 34°15' E 134°59'4 8.9
2017-Nov-17 04:30N 34°11' E 134°60'5 9.7
2017-Nov-17 03:59N 34°06' E 135°01'  
2017-Nov-08 08:56N 34°37' E 135°01'3 6.4
2017-Nov-08 08:29N 34°36' E 135°04'4 7.6
2017-Nov-08 07:59N 34°32' E 135°04'5 9.7
2017-Nov-08 07:30N 34°28' E 135°03'12 9.5
2017-Nov-08 06:12N 34°16' E 134°60'2 9.3
2017-Nov-08 06:01N 34°14' E 134°60'5 9.8
2017-Nov-08 05:29N 34°09' E 134°60'5 9.5
2017-Nov-08 04:58N 34°04' E 135°00'  

Dump ship's entire track history